3.77C
пасмурно
пасмурно
Дата и времяТемператураДавление, мм рт.ст.Влажность, %Осадки
МинимумМаксимум
19.10.2021 02:003.8C3.81C75890облачно с прояснениями
19.10.2021 05:003.15C3.37C75892пасмурно
19.10.2021 08:002.91C2.91C75898пасмурно
19.10.2021 11:005.25C5.25C75791пасмурно
19.10.2021 14:005.41C5.41C75693небольшой дождь
19.10.2021 17:007.15C7.15C75481пасмурно
19.10.2021 20:007.16C7.16C75372пасмурно
19.10.2021 23:007.37C7.37C75371пасмурно
20.10.2021 02:006.91C6.91C75378пасмурно
20.10.2021 05:006.63C6.63C75380пасмурно
20.10.2021 08:006.42C6.42C75379пасмурно
20.10.2021 11:006.63C6.63C75476пасмурно
20.10.2021 14:006.1C6.1C75561пасмурно
20.10.2021 17:003.9C3.9C75671пасмурно
20.10.2021 20:002.74C2.74C75673пасмурно
20.10.2021 23:001.85C1.85C75675пасмурно
21.10.2021 02:000.9C0.9C75678пасмурно
21.10.2021 05:001.24C1.24C75579пасмурно
21.10.2021 08:002.23C2.23C75384пасмурно
21.10.2021 11:003.91C3.91C75091пасмурно
21.10.2021 14:004.5C4.5C74984пасмурно
21.10.2021 17:003.99C3.99C74785пасмурно
21.10.2021 20:003.32C3.32C74798небольшой дождь
21.10.2021 23:003.53C3.53C74895небольшой дождь
22.10.2021 02:001.57C1.57C74996небольшой снег
22.10.2021 05:000.37C0.37C75092небольшой снег
22.10.2021 08:000.07C0.07C75190небольшой снег
22.10.2021 11:000.79C0.79C75181пасмурно
22.10.2021 14:000.7C0.7C75276пасмурно
22.10.2021 17:000.6C0.6C75375пасмурно
22.10.2021 20:000.14C0.14C75277пасмурно
22.10.2021 23:00-0.43C-0.43C75190пасмурно
23.10.2021 02:00-0.31C-0.31C75096небольшой снег
23.10.2021 05:000.34C0.34C74894небольшой снег
23.10.2021 08:000.35C0.35C74698снег
23.10.2021 11:000.81C0.81C74598снег
23.10.2021 14:002.57C2.57C74499небольшой дождь
23.10.2021 17:004.27C4.27C74499небольшой дождь
23.10.2021 20:004.81C4.81C74397небольшой дождь
23.10.2021 23:004.4C4.4C74486небольшой дождь
Дата и время наблюдения: 18.10.2021 23:51:10